sensor_id;sensor_type;location;lat;lon;timestamp;pressure;altitude;pressure_sealevel;temperature;humidity
73870;BME280;64924;42.140;24.762;2023-03-19T00:02:17;100263.97;;;7.64;41.83
73870;BME280;64924;42.140;24.762;2023-03-19T00:04:44;100262.03;;;7.48;41.74
73870;BME280;64924;42.140;24.762;2023-03-19T00:07:09;100274.91;;;7.54;41.94
73870;BME280;64924;42.140;24.762;2023-03-19T00:09:35;100259.81;;;7.44;42.03
73870;BME280;64924;42.140;24.762;2023-03-19T00:12:01;100267.81;;;7.53;42.20
73870;BME280;64924;42.140;24.762;2023-03-19T00:14:26;100273.69;;;7.49;42.26
73870;BME280;64924;42.140;24.762;2023-03-19T00:16:51;100272.59;;;7.33;42.66
73870;BME280;64924;42.140;24.762;2023-03-19T00:19:17;100268.53;;;7.29;42.75
73870;BME280;64924;42.140;24.762;2023-03-19T00:21:42;100250.09;;;7.25;42.47
73870;BME280;64924;42.140;24.762;2023-03-19T00:24:08;100262.31;;;7.37;42.54
73870;BME280;64924;42.140;24.762;2023-03-19T00:26:35;100261.19;;;7.48;42.43
73870;BME280;64924;42.140;24.762;2023-03-19T00:29:01;100253.69;;;7.33;42.68
73870;BME280;64924;42.140;24.762;2023-03-19T00:31:28;100253.06;;;7.40;42.73
73870;BME280;64924;42.140;24.762;2023-03-19T00:33:56;100229.00;;;7.28;42.39
73870;BME280;64924;42.140;24.762;2023-03-19T00:36:23;100237.84;;;7.38;42.41
73870;BME280;64924;42.140;24.762;2023-03-19T00:38:49;100201.06;;;7.20;42.18
73870;BME280;64924;42.140;24.762;2023-03-19T00:41:15;100243.78;;;7.50;42.41
73870;BME280;64924;42.140;24.762;2023-03-19T00:43:42;100141.00;;;6.92;42.07
73870;BME280;64924;42.140;24.762;2023-03-19T00:46:08;100236.47;;;7.34;42.33
73870;BME280;64924;42.140;24.762;2023-03-19T00:48:33;100227.84;;;7.05;42.71
73870;BME280;64924;42.140;24.762;2023-03-19T00:51:08;100215.41;;;6.86;42.95
73870;BME280;64924;42.140;24.762;2023-03-19T00:53:41;100194.16;;;6.65;43.30
73870;BME280;64924;42.140;24.762;2023-03-19T00:56:09;100230.47;;;6.71;43.27
73870;BME280;64924;42.140;24.762;2023-03-19T00:58:35;100228.13;;;6.50;44.05
73870;BME280;64924;42.140;24.762;2023-03-19T01:01:03;100228.03;;;6.42;44.15
73870;BME280;64924;42.140;24.762;2023-03-19T01:03:29;100225.34;;;6.42;43.96
73870;BME280;64924;42.140;24.762;2023-03-19T01:05:54;100224.03;;;6.46;43.96
73870;BME280;64924;42.140;24.762;2023-03-19T01:08:20;100229.75;;;6.43;43.96
73870;BME280;64924;42.140;24.762;2023-03-19T01:10:45;100208.53;;;6.48;43.55
73870;BME280;64924;42.140;24.762;2023-03-19T01:13:11;100214.75;;;6.66;43.49
73870;BME280;64924;42.140;24.762;2023-03-19T01:15:38;100218.63;;;6.64;43.37
73870;BME280;64924;42.140;24.762;2023-03-19T01:18:05;100214.59;;;6.68;43.41
73870;BME280;64924;42.140;24.762;2023-03-19T01:20:30;100223.28;;;6.80;43.30
73870;BME280;64924;42.140;24.762;2023-03-19T01:22:56;100209.63;;;6.81;42.88
73870;BME280;64924;42.140;24.762;2023-03-19T01:25:22;100228.66;;;6.97;42.89
73870;BME280;64924;42.140;24.762;2023-03-19T01:27:48;100218.38;;;7.01;42.71
73870;BME280;64924;42.140;24.762;2023-03-19T01:30:14;100218.69;;;6.98;42.65
73870;BME280;64924;42.140;24.762;2023-03-19T01:32:40;100177.69;;;6.77;42.62
73870;BME280;64924;42.140;24.762;2023-03-19T01:35:06;100224.38;;;7.21;42.47
73870;BME280;64924;42.140;24.762;2023-03-19T01:37:31;100164.81;;;6.96;42.32
73870;BME280;64924;42.140;24.762;2023-03-19T01:39:57;100210.72;;;7.22;42.25
73870;BME280;64924;42.140;24.762;2023-03-19T01:42:23;100222.16;;;7.16;42.68
73870;BME280;64924;42.140;24.762;2023-03-19T01:44:48;100215.81;;;7.25;42.61
73870;BME280;64924;42.140;24.762;2023-03-19T01:47:30;100221.03;;;7.27;42.57
73870;BME280;64924;42.140;24.762;2023-03-19T01:49:57;100187.47;;;6.78;43.01
73870;BME280;64924;42.140;24.762;2023-03-19T01:52:27;100215.22;;;7.14;43.00
73870;BME280;64924;42.140;24.762;2023-03-19T01:54:54;100210.84;;;6.87;42.91
73870;BME280;64924;42.140;24.762;2023-03-19T01:57:21;100211.00;;;6.85;43.02
73870;BME280;64924;42.140;24.762;2023-03-19T01:59:50;100212.91;;;6.93;43.07
73870;BME280;64924;42.140;24.762;2023-03-19T02:02:25;100231.31;;;7.23;42.75
73870;BME280;64924;42.140;24.762;2023-03-19T02:05:05;100186.34;;;7.14;42.17
73870;BME280;64924;42.140;24.762;2023-03-19T02:07:33;100226.56;;;7.17;42.67
73870;BME280;64924;42.140;24.762;2023-03-19T02:10:01;100233.34;;;7.21;42.53
73870;BME280;64924;42.140;24.762;2023-03-19T02:12:28;100236.31;;;7.10;42.57
73870;BME280;64924;42.140;24.762;2023-03-19T02:14:53;100241.16;;;6.98;42.49
73870;BME280;64924;42.140;24.762;2023-03-19T02:17:20;100231.22;;;7.07;42.29
73870;BME280;64924;42.140;24.762;2023-03-19T02:22:24;100228.03;;;7.12;42.23
73870;BME280;64924;42.140;24.762;2023-03-19T02:27:45;100248.28;;;7.08;42.04
73870;BME280;64924;42.140;24.762;2023-03-19T02:30:26;100238.00;;;7.37;41.59
73870;BME280;64924;42.140;24.762;2023-03-19T02:32:52;100257.06;;;7.35;41.14
73870;BME280;64924;42.140;24.762;2023-03-19T02:35:17;100256.50;;;7.24;41.45
73870;BME280;64924;42.140;24.762;2023-03-19T02:37:43;100264.28;;;7.27;41.65
73870;BME280;64924;42.140;24.762;2023-03-19T02:40:13;100264.13;;;7.28;41.66
73870;BME280;64924;42.140;24.762;2023-03-19T02:42:40;100257.59;;;7.13;41.84
73870;BME280;64924;42.140;24.762;2023-03-19T02:45:06;100261.84;;;7.16;42.00
73870;BME280;64924;42.140;24.762;2023-03-19T02:47:33;100275.19;;;7.17;41.82
73870;BME280;64924;42.140;24.762;2023-03-19T02:49:58;100280.84;;;7.06;41.80
73870;BME280;64924;42.140;24.762;2023-03-19T02:52:24;100271.97;;;7.14;41.81
73870;BME280;64924;42.140;24.762;2023-03-19T02:54:50;100259.72;;;7.27;41.56
73870;BME280;64924;42.140;24.762;2023-03-19T02:57:15;100258.78;;;7.36;41.71
73870;BME280;64924;42.140;24.762;2023-03-19T02:59:41;100258.00;;;7.52;41.46
73870;BME280;64924;42.140;24.762;2023-03-19T03:02:07;100246.94;;;7.71;40.85
73870;BME280;64924;42.140;24.762;2023-03-19T03:04:33;100226.41;;;7.53;40.66
73870;BME280;64924;42.140;24.762;2023-03-19T03:06:59;100240.22;;;7.50;40.87
73870;BME280;64924;42.140;24.762;2023-03-19T03:09:25;100252.38;;;7.46;40.85
73870;BME280;64924;42.140;24.762;2023-03-19T03:11:51;100249.69;;;7.46;41.10
73870;BME280;64924;42.140;24.762;2023-03-19T03:14:17;100265.66;;;7.65;41.17
73870;BME280;64924;42.140;24.762;2023-03-19T03:16:43;100266.31;;;7.59;40.79
73870;BME280;64924;42.140;24.762;2023-03-19T03:19:09;100254.44;;;7.52;40.82
73870;BME280;64924;42.140;24.762;2023-03-19T03:21:34;100248.50;;;7.48;41.00
73870;BME280;64924;42.140;24.762;2023-03-19T03:24:00;100263.94;;;7.56;40.75
73870;BME280;64924;42.140;24.762;2023-03-19T03:26:26;100267.97;;;7.52;40.67
73870;BME280;64924;42.140;24.762;2023-03-19T03:28:51;100267.69;;;7.63;40.58
73870;BME280;64924;42.140;24.762;2023-03-19T03:31:17;100265.41;;;7.50;40.64
73870;BME280;64924;42.140;24.762;2023-03-19T03:33:43;100278.66;;;7.27;41.07
73870;BME280;64924;42.140;24.762;2023-03-19T03:36:08;100286.06;;;7.25;41.53
73870;BME280;64924;42.140;24.762;2023-03-19T03:38:34;100257.97;;;7.18;41.38
73870;BME280;64924;42.140;24.762;2023-03-19T03:40:59;100269.75;;;7.43;41.22
73870;BME280;64924;42.140;24.762;2023-03-19T03:43:25;100225.59;;;7.26;41.01
73870;BME280;64924;42.140;24.762;2023-03-19T03:45:51;100270.34;;;7.55;40.83
73870;BME280;64924;42.140;24.762;2023-03-19T03:48:17;100254.22;;;7.37;41.07
73870;BME280;64924;42.140;24.762;2023-03-19T03:50:43;100222.75;;;7.28;40.89
73870;BME280;64924;42.140;24.762;2023-03-19T03:53:09;100267.25;;;7.42;41.15
73870;BME280;64924;42.140;24.762;2023-03-19T03:55:37;100281.56;;;7.34;41.07
73870;BME280;64924;42.140;24.762;2023-03-19T03:58:03;100276.47;;;7.31;41.20
73870;BME280;64924;42.140;24.762;2023-03-19T04:00:28;100232.59;;;7.11;41.11
73870;BME280;64924;42.140;24.762;2023-03-19T04:02:54;100292.91;;;7.37;41.16
73870;BME280;64924;42.140;24.762;2023-03-19T04:05:20;100291.22;;;7.45;41.01
73870;BME280;64924;42.140;24.762;2023-03-19T04:07:46;100231.31;;;7.23;41.15
73870;BME280;64924;42.140;24.762;2023-03-19T04:10:12;100280.78;;;7.76;40.96
73870;BME280;64924;42.140;24.762;2023-03-19T04:12:38;100293.59;;;7.74;40.53
73870;BME280;64924;42.140;24.762;2023-03-19T04:15:05;100279.75;;;7.77;40.27
73870;BME280;64924;42.140;24.762;2023-03-19T04:17:32;100284.31;;;7.76;40.17
73870;BME280;64924;42.140;24.762;2023-03-19T04:19:58;100289.88;;;7.75;40.34
73870;BME280;64924;42.140;24.762;2023-03-19T04:22:23;100245.31;;;7.53;40.11
73870;BME280;64924;42.140;24.762;2023-03-19T04:24:49;100271.75;;;7.67;40.19
73870;BME280;64924;42.140;24.762;2023-03-19T04:27:14;100267.03;;;7.69;39.91
73870;BME280;64924;42.140;24.762;2023-03-19T04:29:40;100281.25;;;7.71;40.20
73870;BME280;64924;42.140;24.762;2023-03-19T04:32:06;100285.81;;;7.70;40.39
73870;BME280;64924;42.140;24.762;2023-03-19T04:34:31;100281.63;;;7.76;39.94
73870;BME280;64924;42.140;24.762;2023-03-19T04:36:57;100298.09;;;7.99;40.06
73870;BME280;64924;42.140;24.762;2023-03-19T04:39:23;100271.31;;;7.88;40.03
73870;BME280;64924;42.140;24.762;2023-03-19T04:41:49;100281.53;;;8.02;39.90
73870;BME280;64924;42.140;24.762;2023-03-19T04:44:14;100288.44;;;7.96;39.69
73870;BME280;64924;42.140;24.762;2023-03-19T04:46:40;100286.19;;;7.84;39.80
73870;BME280;64924;42.140;24.762;2023-03-19T04:49:06;100288.69;;;7.69;40.12
73870;BME280;64924;42.140;24.762;2023-03-19T04:51:32;100245.25;;;7.36;40.59
73870;BME280;64924;42.140;24.762;2023-03-19T04:53:57;100294.88;;;7.61;40.59
73870;BME280;64924;42.140;24.762;2023-03-19T04:56:24;100257.66;;;7.55;40.50
73870;BME280;64924;42.140;24.762;2023-03-19T04:58:49;100249.41;;;7.57;40.34
73870;BME280;64924;42.140;24.762;2023-03-19T05:01:15;100295.81;;;7.78;40.19
73870;BME280;64924;42.140;24.762;2023-03-19T05:03:41;100291.06;;;7.80;40.06
73870;BME280;64924;42.140;24.762;2023-03-19T05:06:07;100301.44;;;7.93;39.75
73870;BME280;64924;42.140;24.762;2023-03-19T05:08:33;100291.44;;;7.77;39.86
73870;BME280;64924;42.140;24.762;2023-03-19T05:10:58;100304.97;;;7.85;39.58
73870;BME280;64924;42.140;24.762;2023-03-19T05:13:24;100306.97;;;7.83;39.86
73870;BME280;64924;42.140;24.762;2023-03-19T05:15:52;100321.78;;;8.05;39.66
73870;BME280;64924;42.140;24.762;2023-03-19T05:18:18;100319.78;;;8.07;39.73
73870;BME280;64924;42.140;24.762;2023-03-19T05:20:44;100317.94;;;8.16;39.40
73870;BME280;64924;42.140;24.762;2023-03-19T05:23:09;100321.16;;;8.11;39.51
73870;BME280;64924;42.140;24.762;2023-03-19T05:25:35;100284.47;;;7.75;39.67
73870;BME280;64924;42.140;24.762;2023-03-19T05:28:02;100268.78;;;7.78;39.74
73870;BME280;64924;42.140;24.762;2023-03-19T05:30:27;100320.47;;;8.09;39.38
73870;BME280;64924;42.140;24.762;2023-03-19T05:32:55;100303.56;;;8.15;39.31
73870;BME280;64924;42.140;24.762;2023-03-19T05:35:21;100315.41;;;8.22;39.36
73870;BME280;64924;42.140;24.762;2023-03-19T05:37:46;100287.47;;;8.05;39.00
73870;BME280;64924;42.140;24.762;2023-03-19T05:40:12;100309.56;;;8.35;38.79
73870;BME280;64924;42.140;24.762;2023-03-19T05:42:37;100311.63;;;8.41;38.77
73870;BME280;64924;42.140;24.762;2023-03-19T05:45:04;100322.66;;;8.64;38.27
73870;BME280;64924;42.140;24.762;2023-03-19T05:47:29;100335.53;;;8.78;37.97
73870;BME280;64924;42.140;24.762;2023-03-19T05:49:55;100323.84;;;8.78;37.56
73870;BME280;64924;42.140;24.762;2023-03-19T05:52:21;100332.63;;;8.63;37.96
73870;BME280;64924;42.140;24.762;2023-03-19T05:54:46;100336.22;;;8.96;37.68
73870;BME280;64924;42.140;24.762;2023-03-19T05:57:14;100340.69;;;9.69;36.49
73870;BME280;64924;42.140;24.762;2023-03-19T05:59:40;100341.34;;;10.88;35.19
73870;BME280;64924;42.140;24.762;2023-03-19T06:02:06;100327.56;;;11.94;32.93
73870;BME280;64924;42.140;24.762;2023-03-19T06:04:32;100335.94;;;12.58;31.40
73870;BME280;64924;42.140;24.762;2023-03-19T06:06:57;100335.50;;;12.55;31.26
73870;BME280;64924;42.140;24.762;2023-03-19T06:09:23;100342.19;;;12.37;31.23
73870;BME280;64924;42.140;24.762;2023-03-19T06:11:49;100303.34;;;12.14;31.20
73870;BME280;64924;42.140;24.762;2023-03-19T06:14:14;100342.03;;;12.10;31.37
73870;BME280;64924;42.140;24.762;2023-03-19T06:16:40;100345.72;;;12.02;31.89
73870;BME280;64924;42.140;24.762;2023-03-19T06:19:06;100351.22;;;12.38;31.70
73870;BME280;64924;42.140;24.762;2023-03-19T06:21:31;100346.75;;;13.09;30.54
73870;BME280;64924;42.140;24.762;2023-03-19T06:23:57;100345.53;;;13.61;29.67
73870;BME280;64924;42.140;24.762;2023-03-19T06:26:23;100347.13;;;14.52;28.48
73870;BME280;64924;42.140;24.762;2023-03-19T06:28:49;100324.47;;;16.03;26.67
73870;BME280;64924;42.140;24.762;2023-03-19T06:31:15;100317.06;;;17.31;24.94
73870;BME280;64924;42.140;24.762;2023-03-19T06:33:40;100319.81;;;18.36;23.27
73870;BME280;64924;42.140;24.762;2023-03-19T06:36:06;100326.91;;;19.33;22.29
73870;BME280;64924;42.140;24.762;2023-03-19T06:38:32;100325.78;;;19.64;21.58
73870;BME280;64924;42.140;24.762;2023-03-19T06:40:58;100312.81;;;20.00;21.53
73870;BME280;64924;42.140;24.762;2023-03-19T06:43:24;100316.06;;;20.60;21.27
73870;BME280;64924;42.140;24.762;2023-03-19T06:45:49;100287.09;;;20.91;20.10
73870;BME280;64924;42.140;24.762;2023-03-19T06:48:15;100316.97;;;21.23;20.13
73870;BME280;64924;42.140;24.762;2023-03-19T06:50:41;100310.34;;;21.07;20.20
73870;BME280;64924;42.140;24.762;2023-03-19T06:53:06;100312.31;;;21.40;20.06
73870;BME280;64924;42.140;24.762;2023-03-19T06:55:32;100303.09;;;21.34;19.92
73870;BME280;64924;42.140;24.762;2023-03-19T06:57:58;100295.53;;;21.13;19.81
73870;BME280;64924;42.140;24.762;2023-03-19T07:00:23;100306.00;;;21.28;19.76
73870;BME280;64924;42.140;24.762;2023-03-19T07:02:49;100313.25;;;21.46;19.66
73870;BME280;64924;42.140;24.762;2023-03-19T07:05:15;100308.38;;;21.36;19.97
73870;BME280;64924;42.140;24.762;2023-03-19T07:07:40;100308.22;;;20.97;20.09
73870;BME280;64924;42.140;24.762;2023-03-19T07:10:06;100301.94;;;21.02;20.03
73870;BME280;64924;42.140;24.762;2023-03-19T07:12:33;100297.56;;;21.34;20.01
73870;BME280;64924;42.140;24.762;2023-03-19T07:14:59;100302.16;;;21.79;19.31
73870;BME280;64924;42.140;24.762;2023-03-19T07:17:25;100296.91;;;21.99;19.50
73870;BME280;64924;42.140;24.762;2023-03-19T07:19:51;100268.06;;;22.12;18.99
73870;BME280;64924;42.140;24.762;2023-03-19T07:22:17;100259.25;;;22.64;18.09
73870;BME280;64924;42.140;24.762;2023-03-19T07:24:42;100290.06;;;23.21;18.29
73870;BME280;64924;42.140;24.762;2023-03-19T07:27:08;100292.19;;;23.46;17.63
73870;BME280;64924;42.140;24.762;2023-03-19T07:29:34;100291.03;;;23.37;17.56
73870;BME280;64924;42.140;24.762;2023-03-19T07:31:59;100277.94;;;23.64;17.29
73870;BME280;64924;42.140;24.762;2023-03-19T07:34:24;100271.22;;;23.97;17.29
73870;BME280;64924;42.140;24.762;2023-03-19T07:36:50;100282.34;;;24.03;17.49
73870;BME280;64924;42.140;24.762;2023-03-19T07:39:17;100278.50;;;24.14;16.79
73870;BME280;64924;42.140;24.762;2023-03-19T07:41:43;100263.97;;;23.91;17.19
73870;BME280;64924;42.140;24.762;2023-03-19T07:44:09;100264.50;;;24.41;16.96
73870;BME280;64924;42.140;24.762;2023-03-19T07:46:35;100277.59;;;24.55;16.36
73870;BME280;64924;42.140;24.762;2023-03-19T07:49:01;100241.50;;;24.65;16.47
73870;BME280;64924;42.140;24.762;2023-03-19T07:51:26;100242.88;;;24.58;16.55
73870;BME280;64924;42.140;24.762;2023-03-19T07:53:52;100276.56;;;24.77;16.68
73870;BME280;64924;42.140;24.762;2023-03-19T07:56:17;100242.97;;;24.16;16.68
73870;BME280;64924;42.140;24.762;2023-03-19T07:58:43;100274.22;;;23.91;17.36
73870;BME280;64924;42.140;24.762;2023-03-19T08:01:08;100274.34;;;23.64;17.56
73870;BME280;64924;42.140;24.762;2023-03-19T08:03:34;100287.28;;;23.90;17.47
73870;BME280;64924;42.140;24.762;2023-03-19T08:05:59;100248.69;;;24.41;17.13
73870;BME280;64924;42.140;24.762;2023-03-19T08:08:25;100264.06;;;24.94;16.50
73870;BME280;64924;42.140;24.762;2023-03-19T08:10:54;100237.41;;;24.98;16.26
73870;BME280;64924;42.140;24.762;2023-03-19T08:13:20;100230.41;;;24.71;16.49
73870;BME280;64924;42.140;24.762;2023-03-19T08:15:48;100259.03;;;24.71;17.12
73870;BME280;64924;42.140;24.762;2023-03-19T08:18:14;100254.31;;;24.77;16.72
73870;BME280;64924;42.140;24.762;2023-03-19T08:20:40;100259.94;;;25.27;16.32
73870;BME280;64924;42.140;24.762;2023-03-19T08:23:05;100255.78;;;25.60;15.80
73870;BME280;64924;42.140;24.762;2023-03-19T08:25:31;100251.03;;;25.51;15.88
73870;BME280;64924;42.140;24.762;2023-03-19T08:28:00;100214.34;;;25.18;16.02
73870;BME280;64924;42.140;24.762;2023-03-19T08:30:26;100251.31;;;25.34;16.26
73870;BME280;64924;42.140;24.762;2023-03-19T08:32:51;100249.66;;;25.28;15.93
73870;BME280;64924;42.140;24.762;2023-03-19T08:35:17;100251.63;;;25.07;16.05
73870;BME280;64924;42.140;24.762;2023-03-19T08:37:43;100210.75;;;25.18;15.98
73870;BME280;64924;42.140;24.762;2023-03-19T08:40:09;100242.13;;;25.54;15.95
73870;BME280;64924;42.140;24.762;2023-03-19T08:42:34;100239.38;;;25.39;15.78
73870;BME280;64924;42.140;24.762;2023-03-19T08:45:03;100234.38;;;25.20;15.84
73870;BME280;64924;42.140;24.762;2023-03-19T08:47:28;100235.22;;;24.23;16.95
73870;BME280;64924;42.140;24.762;2023-03-19T08:49:54;100237.28;;;23.85;16.92
73870;BME280;64924;42.140;24.762;2023-03-19T08:52:20;100236.03;;;24.18;16.80
73870;BME280;64924;42.140;24.762;2023-03-19T08:54:45;100227.03;;;24.53;16.64
73870;BME280;64924;42.140;24.762;2023-03-19T08:57:11;100234.28;;;24.70;16.26
73870;BME280;64924;42.140;24.762;2023-03-19T08:59:37;100229.91;;;25.09;15.68
73870;BME280;64924;42.140;24.762;2023-03-19T09:02:02;100223.81;;;25.07;15.20
73870;BME280;64924;42.140;24.762;2023-03-19T09:04:28;100229.84;;;24.69;15.81
73870;BME280;64924;42.140;24.762;2023-03-19T09:06:53;100221.66;;;24.26;16.28
73870;BME280;64924;42.140;24.762;2023-03-19T09:09:21;100188.56;;;24.10;16.03
73870;BME280;64924;42.140;24.762;2023-03-19T09:11:47;100219.38;;;23.61;16.35
73870;BME280;64924;42.140;24.762;2023-03-19T09:14:13;100213.78;;;22.87;17.06
73870;BME280;64924;42.140;24.762;2023-03-19T09:16:41;100162.09;;;22.44;17.25
73870;BME280;64924;42.140;24.762;2023-03-19T09:19:07;100212.81;;;23.03;17.01
73870;BME280;64924;42.140;24.762;2023-03-19T09:21:34;100199.22;;;23.33;17.03
73870;BME280;64924;42.140;24.762;2023-03-19T09:24:00;100184.22;;;23.72;16.58
73870;BME280;64924;42.140;24.762;2023-03-19T09:26:26;100192.84;;;23.80;16.76
73870;BME280;64924;42.140;24.762;2023-03-19T09:28:51;100196.63;;;24.21;16.58
73870;BME280;64924;42.140;24.762;2023-03-19T09:31:17;100193.94;;;23.79;16.40
73870;BME280;64924;42.140;24.762;2023-03-19T09:33:42;100192.72;;;23.18;17.31
73870;BME280;64924;42.140;24.762;2023-03-19T09:36:08;100187.38;;;23.11;17.59
73870;BME280;64924;42.140;24.762;2023-03-19T09:38:33;100201.44;;;22.99;17.44
73870;BME280;64924;42.140;24.762;2023-03-19T09:41:13;100186.03;;;22.55;17.79
73870;BME280;64924;42.140;24.762;2023-03-19T09:43:59;100192.16;;;22.08;18.47
73870;BME280;64924;42.140;24.762;2023-03-19T09:46:32;100185.91;;;21.57;19.30
73870;BME280;64924;42.140;24.762;2023-03-19T09:49:10;100183.22;;;21.24;19.63
73870;BME280;64924;42.140;24.762;2023-03-19T09:57:16;100169.22;;;20.80;20.61
73870;BME280;64924;42.140;24.762;2023-03-19T09:59:42;100119.38;;;20.25;20.90
73870;BME280;64924;42.140;24.762;2023-03-19T10:02:28;100162.81;;;20.18;21.79
73870;BME280;64924;42.140;24.762;2023-03-19T10:05:07;100162.03;;;20.06;21.87
73870;BME280;64924;42.140;24.762;2023-03-19T10:13:31;100138.72;;;19.21;23.00
73870;BME280;64924;42.140;24.762;2023-03-19T10:16:04;100139.31;;;19.23;23.55
73870;BME280;64924;42.140;24.762;2023-03-19T10:18:36;100141.78;;;19.36;23.77
73870;BME280;64924;42.140;24.762;2023-03-19T10:21:21;100111.03;;;19.28;23.71
73870;BME280;64924;42.140;24.762;2023-03-19T10:23:56;100137.16;;;19.02;24.19
73870;BME280;64924;42.140;24.762;2023-03-19T10:26:29;100121.34;;;18.97;23.87
73870;BME280;64924;42.140;24.762;2023-03-19T10:29:14;100115.97;;;19.14;23.67
73870;BME280;64924;42.140;24.762;2023-03-19T10:32:07;100102.66;;;19.23;23.96
73870;BME280;64924;42.140;24.762;2023-03-19T10:34:44;100098.00;;;18.65;24.76
73870;BME280;64924;42.140;24.762;2023-03-19T10:39:46;100095.44;;;18.52;25.27
73870;BME280;64924;42.140;24.762;2023-03-19T10:42:30;100072.22;;;18.59;25.66
73870;BME280;64924;42.140;24.762;2023-03-19T10:47:44;100085.78;;;18.73;25.36
73870;BME280;64924;42.140;24.762;2023-03-19T10:50:18;100072.53;;;18.93;25.63
73870;BME280;64924;42.140;24.762;2023-03-19T10:52:49;100073.91;;;19.07;25.25
73870;BME280;64924;42.140;24.762;2023-03-19T10:55:18;100062.47;;;18.87;25.24
73870;BME280;64924;42.140;24.762;2023-03-19T10:57:49;100052.16;;;18.70;25.42
73870;BME280;64924;42.140;24.762;2023-03-19T11:00:16;100052.53;;;18.74;25.75
73870;BME280;64924;42.140;24.762;2023-03-19T11:02:47;100059.00;;;18.91;25.46
73870;BME280;64924;42.140;24.762;2023-03-19T11:07:39;100046.75;;;18.99;25.36
73870;BME280;64924;42.140;24.762;2023-03-19T11:10:13;100048.19;;;19.01;25.25
73870;BME280;64924;42.140;24.762;2023-03-19T11:12:39;100048.31;;;18.72;26.06
73870;BME280;64924;42.140;24.762;2023-03-19T11:15:17;100018.63;;;18.50;26.00
73870;BME280;64924;42.140;24.762;2023-03-19T11:17:47;100035.34;;;18.37;26.33
73870;BME280;64924;42.140;24.762;2023-03-19T11:20:33;100024.81;;;18.34;26.32
73870;BME280;64924;42.140;24.762;2023-03-19T11:23:00;100023.41;;;18.43;26.20
73870;BME280;64924;42.140;24.762;2023-03-19T11:25:40;100020.22;;;18.81;26.24
73870;BME280;64924;42.140;24.762;2023-03-19T11:28:15;100022.97;;;18.93;26.15
73870;BME280;64924;42.140;24.762;2023-03-19T11:44:05;99961.84;;;18.96;25.54
73870;BME280;64924;42.140;24.762;2023-03-19T11:46:38;99964.59;;;19.08;25.96
73870;BME280;64924;42.140;24.762;2023-03-19T11:49:25;99994.28;;;19.17;25.66
73870;BME280;64924;42.140;24.762;2023-03-19T12:06:32;99971.25;;;18.72;27.09
73870;BME280;64924;42.140;24.762;2023-03-19T12:26:01;99962.88;;;19.47;26.08
73870;BME280;64924;42.140;24.762;2023-03-19T12:28:48;99960.13;;;19.47;26.07
73870;BME280;64924;42.140;24.762;2023-03-19T12:32:01;99930.66;;;19.47;26.00
73870;BME280;64924;42.140;24.762;2023-03-19T12:34:42;99947.56;;;19.96;25.64
73870;BME280;64924;42.140;24.762;2023-03-19T12:37:26;99950.28;;;20.13;25.45
73870;BME280;64924;42.140;24.762;2023-03-19T12:42:20;99940.28;;;19.90;25.67
73870;BME280;64924;42.140;24.762;2023-03-19T12:44:51;99930.13;;;19.79;25.77
73870;BME280;64924;42.140;24.762;2023-03-19T12:47:29;99930.63;;;19.59;26.16
73870;BME280;64924;42.140;24.762;2023-03-19T12:50:10;99926.97;;;19.42;26.36
73870;BME280;64924;42.140;24.762;2023-03-19T12:52:43;99912.47;;;19.18;26.57
73870;BME280;64924;42.140;24.762;2023-03-19T13:01:25;99909.91;;;19.28;26.74
73870;BME280;64924;42.140;24.762;2023-03-19T13:04:17;99876.41;;;19.19;26.28
73870;BME280;64924;42.140;24.762;2023-03-19T13:07:05;99913.94;;;19.37;26.36
73870;BME280;64924;42.140;24.762;2023-03-19T13:12:09;99905.75;;;19.42;26.10
73870;BME280;64924;42.140;24.762;2023-03-19T13:14:56;99866.69;;;19.45;25.65
73870;BME280;64924;42.140;24.762;2023-03-19T13:20:19;99892.56;;;19.27;26.15
73870;BME280;64924;42.140;24.762;2023-03-19T13:22:58;99886.25;;;19.15;26.44
73870;BME280;64924;42.140;24.762;2023-03-19T13:25:30;99880.09;;;19.25;26.69
73870;BME280;64924;42.140;24.762;2023-03-19T13:27:56;99877.16;;;19.15;26.66
73870;BME280;64924;42.140;24.762;2023-03-19T13:30:22;99885.31;;;19.10;26.83
73870;BME280;64924;42.140;24.762;2023-03-19T13:32:51;99845.13;;;18.68;27.46
73870;BME280;64924;42.140;24.762;2023-03-19T13:35:38;99879.09;;;19.02;27.34
73870;BME280;64924;42.140;24.762;2023-03-19T13:40:50;99865.72;;;18.94;27.45
73870;BME280;64924;42.140;24.762;2023-03-19T13:59:25;99847.72;;;18.87;28.19
73870;BME280;64924;42.140;24.762;2023-03-19T14:01:52;99850.00;;;18.78;28.20
73870;BME280;64924;42.140;24.762;2023-03-19T14:04:35;99842.59;;;18.79;27.62
73870;BME280;64924;42.140;24.762;2023-03-19T14:07:11;99835.25;;;18.84;27.63
73870;BME280;64924;42.140;24.762;2023-03-19T14:09:45;99825.22;;;18.78;27.87
73870;BME280;64924;42.140;24.762;2023-03-19T14:12:27;99835.84;;;18.86;27.97
73870;BME280;64924;42.140;24.762;2023-03-19T14:17:36;99823.94;;;18.69;28.02
73870;BME280;64924;42.140;24.762;2023-03-19T14:25:16;99777.94;;;18.41;28.27
73870;BME280;64924;42.140;24.762;2023-03-19T14:27:45;99832.47;;;18.56;28.67
73870;BME280;64924;42.140;24.762;2023-03-19T14:30:34;99774.16;;;18.30;28.58
73870;BME280;64924;42.140;24.762;2023-03-19T14:33:04;99825.78;;;18.40;28.97
73870;BME280;64924;42.140;24.762;2023-03-19T14:35:40;99815.25;;;18.49;28.63
73870;BME280;64924;42.140;24.762;2023-03-19T14:38:13;99816.56;;;18.46;28.47
73870;BME280;64924;42.140;24.762;2023-03-19T14:40:46;99821.31;;;18.62;28.71
73870;BME280;64924;42.140;24.762;2023-03-19T14:46:22;99773.78;;;18.38;28.31